sensor_id;sensor_type;location;lat;lon;timestamp;P1;durP1;ratioP1;P2;durP2;ratioP2
53401;SDS011;39295;45.534;20.034;2023-04-27T00:00:27;10.65;;;5.63;;
53401;SDS011;39295;45.534;20.034;2023-04-27T00:02:53;14.48;;;6.00;;
53401;SDS011;39295;45.534;20.034;2023-04-27T00:08:23;9.02;;;5.20;;
53401;SDS011;39295;45.534;20.034;2023-04-27T00:10:49;11.48;;;6.18;;
53401;SDS011;39295;45.534;20.034;2023-04-27T00:13:15;10.13;;;6.40;;
53401;SDS011;39295;45.534;20.034;2023-04-27T00:15:41;9.05;;;5.20;;
53401;SDS011;39295;45.534;20.034;2023-04-27T00:18:09;11.05;;;5.05;;
53401;SDS011;39295;45.534;20.034;2023-04-27T00:20:35;8.45;;;4.72;;
53401;SDS011;39295;45.534;20.034;2023-04-27T00:23:01;11.27;;;5.43;;
53401;SDS011;39295;45.534;20.034;2023-04-27T00:25:27;11.48;;;5.75;;
53401;SDS011;39295;45.534;20.034;2023-04-27T00:27:53;10.23;;;5.55;;
53401;SDS011;39295;45.534;20.034;2023-04-27T00:30:19;10.02;;;5.68;;
53401;SDS011;39295;45.534;20.034;2023-04-27T00:32:45;8.07;;;5.55;;
53401;SDS011;39295;45.534;20.034;2023-04-27T00:35:11;10.13;;;5.72;;
53401;SDS011;39295;45.534;20.034;2023-04-27T00:37:37;10.45;;;5.43;;
53401;SDS011;39295;45.534;20.034;2023-04-27T00:40:04;11.93;;;5.95;;
53401;SDS011;39295;45.534;20.034;2023-04-27T00:42:33;8.40;;;5.25;;
53401;SDS011;39295;45.534;20.034;2023-04-27T00:45:00;9.15;;;5.13;;
53401;SDS011;39295;45.534;20.034;2023-04-27T00:47:27;9.18;;;5.57;;
53401;SDS011;39295;45.534;20.034;2023-04-27T00:53:10;10.07;;;5.53;;
53401;SDS011;39295;45.534;20.034;2023-04-27T00:55:36;6.72;;;5.10;;
53401;SDS011;39295;45.534;20.034;2023-04-27T00:58:02;7.07;;;5.20;;
53401;SDS011;39295;45.534;20.034;2023-04-27T01:00:28;9.50;;;4.85;;
53401;SDS011;39295;45.534;20.034;2023-04-27T01:02:55;8.98;;;5.20;;
53401;SDS011;39295;45.534;20.034;2023-04-27T01:08:07;7.90;;;5.18;;
53401;SDS011;39295;45.534;20.034;2023-04-27T01:10:33;12.73;;;5.60;;
53401;SDS011;39295;45.534;20.034;2023-04-27T01:12:59;9.57;;;5.68;;
53401;SDS011;39295;45.534;20.034;2023-04-27T01:15:26;10.13;;;5.80;;
53401;SDS011;39295;45.534;20.034;2023-04-27T01:17:56;9.02;;;5.20;;
53401;SDS011;39295;45.534;20.034;2023-04-27T01:20:22;8.95;;;4.97;;
53401;SDS011;39295;45.534;20.034;2023-04-27T01:22:48;8.65;;;5.13;;
53401;SDS011;39295;45.534;20.034;2023-04-27T01:25:15;9.73;;;5.70;;
53401;SDS011;39295;45.534;20.034;2023-04-27T01:27:41;8.98;;;5.40;;
53401;SDS011;39295;45.534;20.034;2023-04-27T01:30:08;8.25;;;5.22;;
53401;SDS011;39295;45.534;20.034;2023-04-27T01:32:35;7.82;;;5.35;;
53401;SDS011;39295;45.534;20.034;2023-04-27T01:35:02;11.30;;;5.53;;
53401;SDS011;39295;45.534;20.034;2023-04-27T01:37:28;8.65;;;5.05;;
53401;SDS011;39295;45.534;20.034;2023-04-27T01:39:55;7.57;;;5.30;;
53401;SDS011;39295;45.534;20.034;2023-04-27T01:42:22;12.90;;;5.95;;
53401;SDS011;39295;45.534;20.034;2023-04-27T01:44:48;12.55;;;5.40;;
53401;SDS011;39295;45.534;20.034;2023-04-27T01:47:14;7.75;;;4.63;;
53401;SDS011;39295;45.534;20.034;2023-04-27T01:49:47;7.60;;;5.28;;
53401;SDS011;39295;45.534;20.034;2023-04-27T01:52:13;9.80;;;5.55;;
53401;SDS011;39295;45.534;20.034;2023-04-27T01:54:39;8.75;;;5.85;;
53401;SDS011;39295;45.534;20.034;2023-04-27T01:57:05;9.30;;;5.00;;
53401;SDS011;39295;45.534;20.034;2023-04-27T01:59:31;12.50;;;5.60;;
53401;SDS011;39295;45.534;20.034;2023-04-27T02:01:57;7.78;;;5.45;;
53401;SDS011;39295;45.534;20.034;2023-04-27T02:04:23;9.63;;;4.90;;
53401;SDS011;39295;45.534;20.034;2023-04-27T02:09:47;11.10;;;5.55;;
53401;SDS011;39295;45.534;20.034;2023-04-27T02:12:13;8.02;;;4.85;;
53401;SDS011;39295;45.534;20.034;2023-04-27T02:14:39;9.20;;;5.32;;
53401;SDS011;39295;45.534;20.034;2023-04-27T02:17:05;8.93;;;4.97;;
53401;SDS011;39295;45.534;20.034;2023-04-27T02:19:31;9.55;;;5.20;;
53401;SDS011;39295;45.534;20.034;2023-04-27T02:21:57;7.80;;;5.10;;
53401;SDS011;39295;45.534;20.034;2023-04-27T02:24:23;9.98;;;5.82;;
53401;SDS011;39295;45.534;20.034;2023-04-27T02:26:50;8.02;;;5.20;;
53401;SDS011;39295;45.534;20.034;2023-04-27T02:29:16;12.07;;;5.40;;
53401;SDS011;39295;45.534;20.034;2023-04-27T02:31:42;10.73;;;5.47;;
53401;SDS011;39295;45.534;20.034;2023-04-27T02:34:08;7.85;;;5.18;;
53401;SDS011;39295;45.534;20.034;2023-04-27T02:36:35;7.50;;;5.03;;
53401;SDS011;39295;45.534;20.034;2023-04-27T02:39:02;13.30;;;7.57;;
53401;SDS011;39295;45.534;20.034;2023-04-27T02:41:32;9.48;;;7.65;;
53401;SDS011;39295;45.534;20.034;2023-04-27T02:43:58;9.48;;;6.00;;
53401;SDS011;39295;45.534;20.034;2023-04-27T02:46:24;10.13;;;5.45;;
53401;SDS011;39295;45.534;20.034;2023-04-27T02:48:51;11.80;;;5.47;;
53401;SDS011;39295;45.534;20.034;2023-04-27T02:51:17;11.55;;;5.43;;
53401;SDS011;39295;45.534;20.034;2023-04-27T02:53:43;9.98;;;5.55;;
53401;SDS011;39295;45.534;20.034;2023-04-27T02:56:09;10.05;;;5.70;;
53401;SDS011;39295;45.534;20.034;2023-04-27T02:58:35;8.90;;;5.07;;
53401;SDS011;39295;45.534;20.034;2023-04-27T03:01:01;10.75;;;5.32;;
53401;SDS011;39295;45.534;20.034;2023-04-27T03:03:27;8.82;;;5.20;;
53401;SDS011;39295;45.534;20.034;2023-04-27T03:05:53;8.13;;;4.75;;
53401;SDS011;39295;45.534;20.034;2023-04-27T03:08:19;11.85;;;5.70;;
53401;SDS011;39295;45.534;20.034;2023-04-27T03:10:45;14.68;;;5.30;;
53401;SDS011;39295;45.534;20.034;2023-04-27T03:13:12;9.85;;;5.80;;
53401;SDS011;39295;45.534;20.034;2023-04-27T03:15:39;11.02;;;5.43;;
53401;SDS011;39295;45.534;20.034;2023-04-27T03:18:05;9.57;;;5.68;;
53401;SDS011;39295;45.534;20.034;2023-04-27T03:23:35;9.18;;;6.43;;
53401;SDS011;39295;45.534;20.034;2023-04-27T03:26:05;9.25;;;5.95;;
53401;SDS011;39295;45.534;20.034;2023-04-27T03:28:31;12.40;;;5.60;;
53401;SDS011;39295;45.534;20.034;2023-04-27T03:30:57;10.07;;;5.65;;
53401;SDS011;39295;45.534;20.034;2023-04-27T03:33:23;11.75;;;6.18;;
53401;SDS011;39295;45.534;20.034;2023-04-27T03:35:57;9.48;;;6.10;;
53401;SDS011;39295;45.534;20.034;2023-04-27T03:40:49;9.63;;;5.35;;
53401;SDS011;39295;45.534;20.034;2023-04-27T03:43:16;10.32;;;5.50;;
53401;SDS011;39295;45.534;20.034;2023-04-27T03:45:43;9.07;;;5.47;;
53401;SDS011;39295;45.534;20.034;2023-04-27T03:48:09;10.57;;;6.05;;
53401;SDS011;39295;45.534;20.034;2023-04-27T03:50:36;12.00;;;5.55;;
53401;SDS011;39295;45.534;20.034;2023-04-27T03:53:02;10.73;;;5.75;;
53401;SDS011;39295;45.534;20.034;2023-04-27T03:55:28;9.13;;;5.90;;
53401;SDS011;39295;45.534;20.034;2023-04-27T03:57:54;12.02;;;6.47;;
53401;SDS011;39295;45.534;20.034;2023-04-27T04:00:20;10.18;;;5.97;;
53401;SDS011;39295;45.534;20.034;2023-04-27T04:02:46;10.45;;;6.57;;
53401;SDS011;39295;45.534;20.034;2023-04-27T04:05:12;10.77;;;6.43;;
53401;SDS011;39295;45.534;20.034;2023-04-27T04:07:39;8.52;;;5.18;;
53401;SDS011;39295;45.534;20.034;2023-04-27T04:10:06;10.15;;;5.65;;
53401;SDS011;39295;45.534;20.034;2023-04-27T04:12:32;10.13;;;5.70;;
53401;SDS011;39295;45.534;20.034;2023-04-27T04:14:58;10.80;;;5.78;;
53401;SDS011;39295;45.534;20.034;2023-04-27T04:17:24;12.48;;;6.45;;
53401;SDS011;39295;45.534;20.034;2023-04-27T04:19:50;10.98;;;5.75;;
53401;SDS011;39295;45.534;20.034;2023-04-27T04:25:20;10.30;;;5.97;;
53401;SDS011;39295;45.534;20.034;2023-04-27T04:27:46;9.30;;;5.68;;
53401;SDS011;39295;45.534;20.034;2023-04-27T04:30:12;13.52;;;5.70;;
53401;SDS011;39295;45.534;20.034;2023-04-27T04:32:38;11.70;;;5.82;;
53401;SDS011;39295;45.534;20.034;2023-04-27T04:35:05;10.00;;;5.78;;
53401;SDS011;39295;45.534;20.034;2023-04-27T04:37:34;10.13;;;5.80;;
53401;SDS011;39295;45.534;20.034;2023-04-27T04:40:05;11.18;;;5.50;;
53401;SDS011;39295;45.534;20.034;2023-04-27T04:42:34;9.65;;;5.78;;
53401;SDS011;39295;45.534;20.034;2023-04-27T04:45:04;10.63;;;5.90;;
53401;SDS011;39295;45.534;20.034;2023-04-27T04:47:31;9.80;;;5.80;;
53401;SDS011;39295;45.534;20.034;2023-04-27T04:49:58;20.48;;;5.93;;
53401;SDS011;39295;45.534;20.034;2023-04-27T04:52:25;12.60;;;5.93;;
53401;SDS011;39295;45.534;20.034;2023-04-27T04:54:52;12.98;;;5.82;;
53401;SDS011;39295;45.534;20.034;2023-04-27T04:57:18;9.40;;;5.53;;
53401;SDS011;39295;45.534;20.034;2023-04-27T04:59:44;12.68;;;6.18;;
53401;SDS011;39295;45.534;20.034;2023-04-27T05:02:10;14.35;;;6.78;;
53401;SDS011;39295;45.534;20.034;2023-04-27T05:04:36;12.70;;;6.75;;
53401;SDS011;39295;45.534;20.034;2023-04-27T05:07:02;11.57;;;6.43;;
53401;SDS011;39295;45.534;20.034;2023-04-27T05:09:30;11.88;;;7.65;;
53401;SDS011;39295;45.534;20.034;2023-04-27T05:11:56;14.18;;;7.57;;
53401;SDS011;39295;45.534;20.034;2023-04-27T05:14:22;17.33;;;8.32;;
53401;SDS011;39295;45.534;20.034;2023-04-27T05:16:48;13.20;;;6.85;;
53401;SDS011;39295;45.534;20.034;2023-04-27T05:19:15;12.75;;;6.20;;
53401;SDS011;39295;45.534;20.034;2023-04-27T05:21:43;13.15;;;7.22;;
53401;SDS011;39295;45.534;20.034;2023-04-27T05:24:09;9.73;;;5.97;;
53401;SDS011;39295;45.534;20.034;2023-04-27T05:26:36;11.32;;;6.50;;
53401;SDS011;39295;45.534;20.034;2023-04-27T05:29:03;10.52;;;6.82;;
53401;SDS011;39295;45.534;20.034;2023-04-27T05:31:29;11.38;;;6.63;;
53401;SDS011;39295;45.534;20.034;2023-04-27T05:33:55;11.38;;;6.57;;
53401;SDS011;39295;45.534;20.034;2023-04-27T05:36:21;11.75;;;6.13;;
53401;SDS011;39295;45.534;20.034;2023-04-27T05:38:47;11.40;;;6.28;;
53401;SDS011;39295;45.534;20.034;2023-04-27T05:41:13;14.52;;;6.55;;
53401;SDS011;39295;45.534;20.034;2023-04-27T05:43:39;14.10;;;7.00;;
53401;SDS011;39295;45.534;20.034;2023-04-27T05:46:05;14.52;;;7.38;;
53401;SDS011;39295;45.534;20.034;2023-04-27T05:48:31;10.82;;;6.60;;
53401;SDS011;39295;45.534;20.034;2023-04-27T05:54:15;13.27;;;6.43;;
53401;SDS011;39295;45.534;20.034;2023-04-27T05:56:41;11.90;;;6.57;;
53401;SDS011;39295;45.534;20.034;2023-04-27T05:59:07;13.07;;;7.28;;
53401;SDS011;39295;45.534;20.034;2023-04-27T06:01:33;11.52;;;7.38;;
53401;SDS011;39295;45.534;20.034;2023-04-27T06:04:00;10.43;;;7.10;;
53401;SDS011;39295;45.534;20.034;2023-04-27T06:06:26;12.75;;;7.57;;
53401;SDS011;39295;45.534;20.034;2023-04-27T06:08:52;10.60;;;7.43;;
53401;SDS011;39295;45.534;20.034;2023-04-27T06:11:18;16.52;;;7.65;;
53401;SDS011;39295;45.534;20.034;2023-04-27T06:13:45;9.30;;;6.63;;
53401;SDS011;39295;45.534;20.034;2023-04-27T06:16:11;9.98;;;6.97;;
53401;SDS011;39295;45.534;20.034;2023-04-27T06:18:38;9.43;;;6.65;;
53401;SDS011;39295;45.534;20.034;2023-04-27T06:24:21;13.98;;;6.30;;
53401;SDS011;39295;45.534;20.034;2023-04-27T06:26:48;10.73;;;6.93;;
53401;SDS011;39295;45.534;20.034;2023-04-27T06:29:14;11.57;;;6.78;;
53401;SDS011;39295;45.534;20.034;2023-04-27T06:31:40;9.20;;;6.60;;
53401;SDS011;39295;45.534;20.034;2023-04-27T06:34:06;10.65;;;6.63;;
53401;SDS011;39295;45.534;20.034;2023-04-27T06:36:32;12.70;;;6.70;;
53401;SDS011;39295;45.534;20.034;2023-04-27T06:38:58;9.50;;;7.03;;
53401;SDS011;39295;45.534;20.034;2023-04-27T06:41:25;13.65;;;7.18;;
53401;SDS011;39295;45.534;20.034;2023-04-27T06:43:51;11.95;;;7.05;;
53401;SDS011;39295;45.534;20.034;2023-04-27T06:46:18;15.50;;;6.85;;
53401;SDS011;39295;45.534;20.034;2023-04-27T06:48:44;10.30;;;7.10;;
53401;SDS011;39295;45.534;20.034;2023-04-27T06:54:28;13.35;;;6.85;;
53401;SDS011;39295;45.534;20.034;2023-04-27T06:56:54;12.38;;;6.75;;
53401;SDS011;39295;45.534;20.034;2023-04-27T06:59:20;9.70;;;6.72;;
53401;SDS011;39295;45.534;20.034;2023-04-27T07:01:46;14.48;;;6.95;;
53401;SDS011;39295;45.534;20.034;2023-04-27T07:04:12;10.35;;;5.40;;
53401;SDS011;39295;45.534;20.034;2023-04-27T07:06:38;10.77;;;6.35;;
53401;SDS011;39295;45.534;20.034;2023-04-27T07:09:04;10.20;;;5.70;;
53401;SDS011;39295;45.534;20.034;2023-04-27T07:11:30;10.90;;;5.18;;
53401;SDS011;39295;45.534;20.034;2023-04-27T07:13:56;11.85;;;5.15;;
53401;SDS011;39295;45.534;20.034;2023-04-27T07:16:22;9.88;;;5.28;;
53401;SDS011;39295;45.534;20.034;2023-04-27T07:18:48;12.13;;;5.35;;
53401;SDS011;39295;45.534;20.034;2023-04-27T07:21:15;9.20;;;5.18;;
53401;SDS011;39295;45.534;20.034;2023-04-27T07:23:41;10.93;;;5.47;;
53401;SDS011;39295;45.534;20.034;2023-04-27T07:26:07;11.43;;;5.90;;
53401;SDS011;39295;45.534;20.034;2023-04-27T07:28:34;13.00;;;5.90;;
53401;SDS011;39295;45.534;20.034;2023-04-27T07:31:00;9.57;;;5.20;;
53401;SDS011;39295;45.534;20.034;2023-04-27T07:33:28;11.15;;;5.50;;
53401;SDS011;39295;45.534;20.034;2023-04-27T07:35:54;10.55;;;4.95;;
53401;SDS011;39295;45.534;20.034;2023-04-27T07:38:21;11.13;;;5.70;;
53401;SDS011;39295;45.534;20.034;2023-04-27T07:40:47;10.23;;;5.10;;
53401;SDS011;39295;45.534;20.034;2023-04-27T07:43:14;8.10;;;3.78;;
53401;SDS011;39295;45.534;20.034;2023-04-27T07:45:40;8.40;;;3.65;;
53401;SDS011;39295;45.534;20.034;2023-04-27T07:48:06;8.43;;;3.05;;
53401;SDS011;39295;45.534;20.034;2023-04-27T07:53:33;7.10;;;2.65;;
53401;SDS011;39295;45.534;20.034;2023-04-27T07:56:00;5.53;;;2.47;;
53401;SDS011;39295;45.534;20.034;2023-04-27T07:58:28;4.20;;;2.63;;
53401;SDS011;39295;45.534;20.034;2023-04-27T08:00:54;8.57;;;3.05;;
53401;SDS011;39295;45.534;20.034;2023-04-27T08:03:20;8.90;;;2.75;;
53401;SDS011;39295;45.534;20.034;2023-04-27T08:05:46;5.70;;;2.75;;
53401;SDS011;39295;45.534;20.034;2023-04-27T08:08:12;7.60;;;2.80;;
53401;SDS011;39295;45.534;20.034;2023-04-27T08:10:38;8.88;;;3.03;;
53401;SDS011;39295;45.534;20.034;2023-04-27T08:13:06;9.80;;;3.05;;
53401;SDS011;39295;45.534;20.034;2023-04-27T08:15:34;4.10;;;2.08;;
53401;SDS011;39295;45.534;20.034;2023-04-27T08:18:00;7.25;;;2.78;;
53401;SDS011;39295;45.534;20.034;2023-04-27T08:20:26;7.82;;;3.42;;
53401;SDS011;39295;45.534;20.034;2023-04-27T08:22:52;4.65;;;2.95;;
53401;SDS011;39295;45.534;20.034;2023-04-27T08:25:18;6.07;;;3.10;;
53401;SDS011;39295;45.534;20.034;2023-04-27T08:27:45;8.07;;;3.17;;
53401;SDS011;39295;45.534;20.034;2023-04-27T08:30:11;11.15;;;3.22;;
53401;SDS011;39295;45.534;20.034;2023-04-27T08:32:37;11.38;;;3.65;;
53401;SDS011;39295;45.534;20.034;2023-04-27T08:35:04;6.97;;;3.28;;
53401;SDS011;39295;45.534;20.034;2023-04-27T08:37:31;7.47;;;3.30;;
53401;SDS011;39295;45.534;20.034;2023-04-27T08:39:57;9.43;;;3.33;;
53401;SDS011;39295;45.534;20.034;2023-04-27T08:42:23;6.45;;;2.58;;
53401;SDS011;39295;45.534;20.034;2023-04-27T08:44:49;7.03;;;2.60;;
53401;SDS011;39295;45.534;20.034;2023-04-27T08:47:16;6.38;;;2.80;;
53401;SDS011;39295;45.534;20.034;2023-04-27T08:49:42;8.98;;;3.00;;
53401;SDS011;39295;45.534;20.034;2023-04-27T08:52:12;4.45;;;2.08;;
53401;SDS011;39295;45.534;20.034;2023-04-27T08:54:39;5.43;;;2.10;;
53401;SDS011;39295;45.534;20.034;2023-04-27T08:57:08;5.65;;;2.80;;
53401;SDS011;39295;45.534;20.034;2023-04-27T08:59:34;8.48;;;2.60;;
53401;SDS011;39295;45.534;20.034;2023-04-27T09:02:01;7.40;;;3.17;;
53401;SDS011;39295;45.534;20.034;2023-04-27T09:04:37;6.85;;;2.58;;
53401;SDS011;39295;45.534;20.034;2023-04-27T09:07:37;7.07;;;2.97;;
53401;SDS011;39295;45.534;20.034;2023-04-27T09:12:22;7.95;;;2.60;;
53401;SDS011;39295;45.534;20.034;2023-04-27T09:14:55;6.68;;;2.50;;
53401;SDS011;39295;45.534;20.034;2023-04-27T09:17:25;4.35;;;2.35;;
53401;SDS011;39295;45.534;20.034;2023-04-27T09:19:51;4.97;;;2.63;;
53401;SDS011;39295;45.534;20.034;2023-04-27T09:22:17;5.65;;;2.60;;
53401;SDS011;39295;45.534;20.034;2023-04-27T09:24:50;10.88;;;3.60;;
53401;SDS011;39295;45.534;20.034;2023-04-27T09:27:20;6.60;;;2.75;;
53401;SDS011;39295;45.534;20.034;2023-04-27T09:29:46;5.05;;;2.65;;
53401;SDS011;39295;45.534;20.034;2023-04-27T09:32:15;5.45;;;2.80;;
53401;SDS011;39295;45.534;20.034;2023-04-27T09:34:43;4.88;;;2.10;;
53401;SDS011;39295;45.534;20.034;2023-04-27T09:37:09;8.50;;;3.35;;
53401;SDS011;39295;45.534;20.034;2023-04-27T09:39:35;9.10;;;2.50;;
53401;SDS011;39295;45.534;20.034;2023-04-27T09:42:01;7.55;;;2.90;;
53401;SDS011;39295;45.534;20.034;2023-04-27T09:44:31;7.80;;;2.88;;
53401;SDS011;39295;45.534;20.034;2023-04-27T09:46:57;7.80;;;2.88;;
53401;SDS011;39295;45.534;20.034;2023-04-27T09:49:33;7.88;;;3.63;;
53401;SDS011;39295;45.534;20.034;2023-04-27T09:52:00;10.75;;;3.40;;
53401;SDS011;39295;45.534;20.034;2023-04-27T09:54:26;6.03;;;2.90;;
53401;SDS011;39295;45.534;20.034;2023-04-27T09:57:07;8.43;;;2.88;;
53401;SDS011;39295;45.534;20.034;2023-04-27T09:59:47;6.05;;;3.03;;
53401;SDS011;39295;45.534;20.034;2023-04-27T10:02:17;10.20;;;3.03;;
53401;SDS011;39295;45.534;20.034;2023-04-27T10:04:58;20.67;;;3.25;;
53401;SDS011;39295;45.534;20.034;2023-04-27T10:07:27;7.60;;;3.35;;
53401;SDS011;39295;45.534;20.034;2023-04-27T10:09:53;13.55;;;2.80;;
53401;SDS011;39295;45.534;20.034;2023-04-27T10:12:20;38.78;;;4.57;;
53401;SDS011;39295;45.534;20.034;2023-04-27T10:14:53;7.50;;;3.10;;
53401;SDS011;39295;45.534;20.034;2023-04-27T10:17:24;17.25;;;3.88;;
53401;SDS011;39295;45.534;20.034;2023-04-27T10:20:08;23.50;;;3.38;;
53401;SDS011;39295;45.534;20.034;2023-04-27T10:22:35;7.65;;;3.10;;
53401;SDS011;39295;45.534;20.034;2023-04-27T10:25:11;11.38;;;2.50;;
53401;SDS011;39295;45.534;20.034;2023-04-27T10:27:38;10.27;;;2.55;;
53401;SDS011;39295;45.534;20.034;2023-04-27T10:30:11;10.32;;;2.83;;
53401;SDS011;39295;45.534;20.034;2023-04-27T10:32:48;10.23;;;2.92;;
53401;SDS011;39295;45.534;20.034;2023-04-27T10:35:15;8.30;;;2.58;;
53401;SDS011;39295;45.534;20.034;2023-04-27T10:37:42;18.58;;;3.13;;
53401;SDS011;39295;45.534;20.034;2023-04-27T10:40:08;13.07;;;2.55;;
53401;SDS011;39295;45.534;20.034;2023-04-27T10:42:35;8.80;;;2.70;;
53401;SDS011;39295;45.534;20.034;2023-04-27T10:45:01;4.53;;;2.40;;
53401;SDS011;39295;45.534;20.034;2023-04-27T10:47:37;5.30;;;2.35;;
53401;SDS011;39295;45.534;20.034;2023-04-27T10:50:05;4.25;;;2.47;;
53401;SDS011;39295;45.534;20.034;2023-04-27T10:55:34;7.03;;;2.50;;
53401;SDS011;39295;45.534;20.034;2023-04-27T10:58:01;12.38;;;2.58;;
53401;SDS011;39295;45.534;20.034;2023-04-27T11:00:32;6.32;;;2.50;;
53401;SDS011;39295;45.534;20.034;2023-04-27T11:15:05;5.68;;;2.20;;
53401;SDS011;39295;45.534;20.034;2023-04-27T11:17:31;4.70;;;2.13;;
53401;SDS011;39295;45.534;20.034;2023-04-27T11:19:57;7.90;;;2.58;;
53401;SDS011;39295;45.534;20.034;2023-04-27T11:22:23;9.38;;;2.67;;
53401;SDS011;39295;45.534;20.034;2023-04-27T11:24:50;8.25;;;2.90;;
53401;SDS011;39295;45.534;20.034;2023-04-27T11:27:16;8.10;;;2.35;;
53401;SDS011;39295;45.534;20.034;2023-04-27T11:29:43;7.95;;;2.58;;
53401;SDS011;39295;45.534;20.034;2023-04-27T11:32:19;5.28;;;2.42;;
53401;SDS011;39295;45.534;20.034;2023-04-27T11:34:49;4.80;;;2.20;;
53401;SDS011;39295;45.534;20.034;2023-04-27T11:37:19;8.73;;;2.50;;
53401;SDS011;39295;45.534;20.034;2023-04-27T11:39:47;5.03;;;1.90;;
53401;SDS011;39295;45.534;20.034;2023-04-27T11:42:17;8.50;;;2.50;;
53401;SDS011;39295;45.534;20.034;2023-04-27T11:44:51;5.60;;;2.10;;
53401;SDS011;39295;45.534;20.034;2023-04-27T11:47:17;8.30;;;2.58;;
53401;SDS011;39295;45.534;20.034;2023-04-27T11:49:50;5.72;;;2.60;;
53401;SDS011;39295;45.534;20.034;2023-04-27T11:55:20;4.75;;;1.90;;
53401;SDS011;39295;45.534;20.034;2023-04-27T11:57:47;5.35;;;1.92;;
53401;SDS011;39295;45.534;20.034;2023-04-27T12:00:13;4.97;;;2.40;;
53401;SDS011;39295;45.534;20.034;2023-04-27T12:02:41;5.47;;;2.00;;
53401;SDS011;39295;45.534;20.034;2023-04-27T12:05:07;5.25;;;1.88;;
53401;SDS011;39295;45.534;20.034;2023-04-27T12:07:34;4.93;;;1.95;;
53401;SDS011;39295;45.534;20.034;2023-04-27T12:10:00;6.32;;;2.65;;
53401;SDS011;39295;45.534;20.034;2023-04-27T12:12:26;4.35;;;2.20;;
53401;SDS011;39295;45.534;20.034;2023-04-27T12:14:52;5.47;;;2.20;;
53401;SDS011;39295;45.534;20.034;2023-04-27T12:17:18;7.47;;;2.20;;
53401;SDS011;39295;45.534;20.034;2023-04-27T12:19:45;7.95;;;2.22;;
53401;SDS011;39295;45.534;20.034;2023-04-27T12:22:11;5.30;;;2.08;;
53401;SDS011;39295;45.534;20.034;2023-04-27T12:24:37;3.75;;;2.00;;
53401;SDS011;39295;45.534;20.034;2023-04-27T12:27:03;6.13;;;2.20;;
53401;SDS011;39295;45.534;20.034;2023-04-27T12:29:30;5.53;;;2.53;;
53401;SDS011;39295;45.534;20.034;2023-04-27T12:32:00;5.68;;;2.50;;
53401;SDS011;39295;45.534;20.034;2023-04-27T12:34:26;7.43;;;3.03;;
53401;SDS011;39295;45.534;20.034;2023-04-27T12:36:55;5.97;;;2.35;;
53401;SDS011;39295;45.534;20.034;2023-04-27T12:39:22;8.70;;;2.58;;
53401;SDS011;39295;45.534;20.034;2023-04-27T12:41:51;6.05;;;2.20;;
53401;SDS011;39295;45.534;20.034;2023-04-27T12:44:18;13.15;;;2.92;;
53401;SDS011;39295;45.534;20.034;2023-04-27T12:46:45;7.93;;;2.00;;
53401;SDS011;39295;45.534;20.034;2023-04-27T12:49:12;5.55;;;2.30;;
53401;SDS011;39295;45.534;20.034;2023-04-27T12:51:38;11.27;;;2.80;;
53401;SDS011;39295;45.534;20.034;2023-04-27T12:54:05;5.47;;;2.35;;
53401;SDS011;39295;45.534;20.034;2023-04-27T12:56:31;5.70;;;2.30;;
53401;SDS011;39295;45.534;20.034;2023-04-27T12:58:58;5.70;;;2.10;;
53401;SDS011;39295;45.534;20.034;2023-04-27T13:01:24;6.75;;;2.03;;
53401;SDS011;39295;45.534;20.034;2023-04-27T13:03:52;5.60;;;2.20;;
53401;SDS011;39295;45.534;20.034;2023-04-27T13:06:18;5.35;;;2.60;;
53401;SDS011;39295;45.534;20.034;2023-04-27T13:08:44;6.63;;;2.22;;
53401;SDS011;39295;45.534;20.034;2023-04-27T13:11:11;5.88;;;2.03;;
53401;SDS011;39295;45.534;20.034;2023-04-27T13:13:37;6.78;;;2.20;;
53401;SDS011;39295;45.534;20.034;2023-04-27T13:16:03;6.15;;;1.88;;
53401;SDS011;39295;45.534;20.034;2023-04-27T13:18:29;6.93;;;3.40;;
53401;SDS011;39295;45.534;20.034;2023-04-27T13:20:55;4.93;;;2.17;;
53401;SDS011;39295;45.534;20.034;2023-04-27T13:23:22;5.30;;;2.08;;
53401;SDS011;39295;45.534;20.034;2023-04-27T13:25:48;6.68;;;2.15;;
53401;SDS011;39295;45.534;20.034;2023-04-27T13:28:14;5.03;;;2.33;;
53401;SDS011;39295;45.534;20.034;2023-04-27T13:30:40;7.10;;;2.05;;
53401;SDS011;39295;45.534;20.034;2023-04-27T13:33:09;6.75;;;2.65;;
53401;SDS011;39295;45.534;20.034;2023-04-27T13:35:36;18.38;;;8.90;;
53401;SDS011;39295;45.534;20.034;2023-04-27T13:41:00;7.68;;;2.20;;
53401;SDS011;39295;45.534;20.034;2023-04-27T13:43:26;3.20;;;1.60;;
53401;SDS011;39295;45.534;20.034;2023-04-27T13:45:52;8.98;;;3.72;;
53401;SDS011;39295;45.534;20.034;2023-04-27T13:48:19;9.02;;;3.40;;
53401;SDS011;39295;45.534;20.034;2023-04-27T13:50:45;8.30;;;2.65;;
53401;SDS011;39295;45.534;20.034;2023-04-27T13:53:11;6.57;;;1.90;;
53401;SDS011;39295;45.534;20.034;2023-04-27T13:55:37;7.13;;;2.20;;
53401;SDS011;39295;45.534;20.034;2023-04-27T13:58:03;9.43;;;2.53;;
53401;SDS011;39295;45.534;20.034;2023-04-27T14:00:30;4.55;;;2.10;;
53401;SDS011;39295;45.534;20.034;2023-04-27T14:02:57;5.43;;;2.08;;
53401;SDS011;39295;45.534;20.034;2023-04-27T14:05:24;5.82;;;2.00;;
53401;SDS011;39295;45.534;20.034;2023-04-27T14:07:51;4.90;;;2.10;;
53401;SDS011;39295;45.534;20.034;2023-04-27T14:10:17;3.22;;;2.28;;
53401;SDS011;39295;45.534;20.034;2023-04-27T14:12:44;5.80;;;2.35;;
53401;SDS011;39295;45.534;20.034;2023-04-27T14:15:10;7.13;;;2.10;;
53401;SDS011;39295;45.534;20.034;2023-04-27T14:17:36;6.63;;;2.60;;
53401;SDS011;39295;45.534;20.034;2023-04-27T14:20:05;6.38;;;2.53;;
53401;SDS011;39295;45.534;20.034;2023-04-27T14:25:35;5.15;;;2.20;;
53401;SDS011;39295;45.534;20.034;2023-04-27T14:28:03;6.03;;;2.08;;
53401;SDS011;39295;45.534;20.034;2023-04-27T14:30:32;7.88;;;2.00;;
53401;SDS011;39295;45.534;20.034;2023-04-27T14:32:59;6.38;;;2.75;;
53401;SDS011;39295;45.534;20.034;2023-04-27T14:35:26;14.02;;;2.95;;
53401;SDS011;39295;45.534;20.034;2023-04-27T14:37:52;5.25;;;2.10;;
53401;SDS011;39295;45.534;20.034;2023-04-27T14:40:20;4.72;;;2.42;;
53401;SDS011;39295;45.534;20.034;2023-04-27T14:42:46;8.93;;;2.38;;
53401;SDS011;39295;45.534;20.034;2023-04-27T14:45:12;6.10;;;2.55;;
53401;SDS011;39295;45.534;20.034;2023-04-27T14:47:41;10.23;;;3.10;;
53401;SDS011;39295;45.534;20.034;2023-04-27T14:50:07;6.85;;;2.50;;
53401;SDS011;39295;45.534;20.034;2023-04-27T14:52:35;5.43;;;2.30;;
53401;SDS011;39295;45.534;20.034;2023-04-27T14:55:01;4.35;;;2.45;;
53401;SDS011;39295;45.534;20.034;2023-04-27T14:57:27;14.25;;;3.28;;
53401;SDS011;39295;45.534;20.034;2023-04-27T14:59:53;6.85;;;2.10;;
53401;SDS011;39295;45.534;20.034;2023-04-27T15:02:20;6.60;;;2.25;;
53401;SDS011;39295;45.534;20.034;2023-04-27T15:04:46;5.88;;;2.28;;
53401;SDS011;39295;45.534;20.034;2023-04-27T15:07:13;10.27;;;2.50;;
53401;SDS011;39295;45.534;20.034;2023-04-27T15:09:39;7.63;;;2.47;;
53401;SDS011;39295;45.534;20.034;2023-04-27T15:12:05;10.13;;;2.33;;
53401;SDS011;39295;45.534;20.034;2023-04-27T15:14:32;9.18;;;2.67;;
53401;SDS011;39295;45.534;20.034;2023-04-27T15:16:58;8.63;;;3.88;;
53401;SDS011;39295;45.534;20.034;2023-04-27T15:19:24;11.30;;;3.97;;
53401;SDS011;39295;45.534;20.034;2023-04-27T15:21:50;13.43;;;6.95;;
53401;SDS011;39295;45.534;20.034;2023-04-27T15:24:16;9.77;;;3.80;;
53401;SDS011;39295;45.534;20.034;2023-04-27T15:26:42;7.45;;;3.22;;